sensor_id;sensor_type;location;lat;lon;timestamp;pressure;altitude;pressure_sealevel;temperature;humidity
43683;BME280;29285;52.128;21.060;2022-10-31T00:02:38;100700.09;;;11.54;78.36
43683;BME280;29285;52.128;21.060;2022-10-31T00:07:39;100700.48;;;11.56;78.41
43683;BME280;29285;52.128;21.060;2022-10-31T00:12:40;100699.16;;;11.58;78.50
43683;BME280;29285;52.128;21.060;2022-10-31T00:17:42;100704.38;;;11.58;78.57
43683;BME280;29285;52.128;21.060;2022-10-31T00:22:43;100697.47;;;11.55;78.54
43683;BME280;29285;52.128;21.060;2022-10-31T00:27:44;100695.77;;;11.52;78.53
43683;BME280;29285;52.128;21.060;2022-10-31T00:32:46;100703.20;;;11.48;78.53
43683;BME280;29285;52.128;21.060;2022-10-31T00:37:47;100696.77;;;11.44;78.48
43683;BME280;29285;52.128;21.060;2022-10-31T00:42:48;100706.34;;;11.40;78.50
43683;BME280;29285;52.128;21.060;2022-10-31T00:47:50;100695.13;;;11.35;78.53
43683;BME280;29285;52.128;21.060;2022-10-31T00:52:51;100699.08;;;11.33;78.55
43683;BME280;29285;52.128;21.060;2022-10-31T00:57:52;100701.70;;;11.32;78.58
43683;BME280;29285;52.128;21.060;2022-10-31T01:02:54;100705.61;;;11.32;78.61
43683;BME280;29285;52.128;21.060;2022-10-31T01:07:55;100708.66;;;11.30;78.62
43683;BME280;29285;52.128;21.060;2022-10-31T01:12:57;100713.46;;;11.27;78.58
43683;BME280;29285;52.128;21.060;2022-10-31T01:17:58;100713.95;;;11.23;78.56
43683;BME280;29285;52.128;21.060;2022-10-31T01:23:00;100710.10;;;11.20;78.57
43683;BME280;29285;52.128;21.060;2022-10-31T01:28:01;100713.61;;;11.18;78.55
43683;BME280;29285;52.128;21.060;2022-10-31T01:33:03;100716.67;;;11.14;78.53
43683;BME280;29285;52.128;21.060;2022-10-31T01:38:04;100715.84;;;11.10;78.55
43683;BME280;29285;52.128;21.060;2022-10-31T01:43:10;100717.22;;;11.06;78.56
43683;BME280;29285;52.128;21.060;2022-10-31T01:48:15;100722.42;;;11.06;78.60
43683;BME280;29285;52.128;21.060;2022-10-31T01:53:18;100719.86;;;11.01;78.61
43683;BME280;29285;52.128;21.060;2022-10-31T01:58:27;100716.85;;;10.98;78.57
43683;BME280;29285;52.128;21.060;2022-10-31T02:03:27;100724.66;;;10.98;78.59
43683;BME280;29285;52.128;21.060;2022-10-31T02:08:31;100724.66;;;10.98;78.62
43683;BME280;29285;52.128;21.060;2022-10-31T02:13:34;100722.92;;;11.01;78.71
43683;BME280;29285;52.128;21.060;2022-10-31T02:18:36;100728.49;;;11.05;78.80
43683;BME280;29285;52.128;21.060;2022-10-31T02:40:28;100720.45;;;10.86;78.74
43683;BME280;29285;52.128;21.060;2022-10-31T02:51:16;100718.47;;;10.72;78.62
43683;BME280;29285;52.128;21.060;2022-10-31T02:56:19;100715.48;;;10.66;78.60
43683;BME280;29285;52.128;21.060;2022-10-31T03:07:03;100732.89;;;10.59;78.56
43683;BME280;29285;52.128;21.060;2022-10-31T03:12:45;100740.28;;;10.57;78.50
43683;BME280;29285;52.128;21.060;2022-10-31T03:22:58;100748.11;;;10.54;78.56
43683;BME280;29285;52.128;21.060;2022-10-31T03:28:03;100747.27;;;10.52;78.55
43683;BME280;29285;52.128;21.060;2022-10-31T03:33:08;100747.29;;;10.49;78.53
43683;BME280;29285;52.128;21.060;2022-10-31T03:38:13;100758.61;;;10.41;78.48
43683;BME280;29285;52.128;21.060;2022-10-31T03:43:19;100756.91;;;10.37;78.46
43683;BME280;29285;52.128;21.060;2022-10-31T03:48:23;100761.28;;;10.32;78.46
43683;BME280;29285;52.128;21.060;2022-10-31T03:53:30;100762.59;;;10.30;78.44
43683;BME280;29285;52.128;21.060;2022-10-31T03:58:42;100769.09;;;10.30;78.47
43683;BME280;29285;52.128;21.060;2022-10-31T04:03:44;100775.17;;;10.31;78.53
43683;BME280;29285;52.128;21.060;2022-10-31T04:08:52;100763.46;;;10.32;78.57
43683;BME280;29285;52.128;21.060;2022-10-31T04:13:56;100772.15;;;10.31;78.55
43683;BME280;29285;52.128;21.060;2022-10-31T04:18:58;100769.56;;;10.27;78.53
43683;BME280;29285;52.128;21.060;2022-10-31T04:23:59;100770.02;;;10.26;78.58
43683;BME280;29285;52.128;21.060;2022-10-31T04:29:01;100781.73;;;10.23;78.57
43683;BME280;29285;52.128;21.060;2022-10-31T04:34:02;100774.83;;;10.17;78.55
43683;BME280;29285;52.128;21.060;2022-10-31T04:39:04;100764.48;;;10.11;78.52
43683;BME280;29285;52.128;21.060;2022-10-31T04:44:05;100767.97;;;10.09;78.47
43683;BME280;29285;52.128;21.060;2022-10-31T04:49:06;100770.16;;;10.06;78.44
43683;BME280;29285;52.128;21.060;2022-10-31T04:54:08;100774.94;;;10.05;78.45
43683;BME280;29285;52.128;21.060;2022-10-31T04:59:09;100778.00;;;10.01;78.43
43683;BME280;29285;52.128;21.060;2022-10-31T05:04:10;100781.44;;;10.02;78.43
43683;BME280;29285;52.128;21.060;2022-10-31T05:09:12;100782.78;;;9.97;78.37
43683;BME280;29285;52.128;21.060;2022-10-31T05:14:13;100781.50;;;9.92;78.35
43683;BME280;29285;52.128;21.060;2022-10-31T05:19:14;100787.16;;;9.90;78.37
43683;BME280;29285;52.128;21.060;2022-10-31T05:24:16;100789.76;;;9.87;78.36
43683;BME280;29285;52.128;21.060;2022-10-31T05:29:17;100797.59;;;9.81;78.35
43683;BME280;29285;52.128;21.060;2022-10-31T05:34:19;100800.66;;;9.79;78.38
43683;BME280;29285;52.128;21.060;2022-10-31T05:39:20;100800.23;;;9.75;78.34
43683;BME280;29285;52.128;21.060;2022-10-31T05:44:21;100806.28;;;9.77;78.31
43683;BME280;29285;52.128;21.060;2022-10-31T05:49:23;100807.16;;;9.79;78.32
43683;BME280;29285;52.128;21.060;2022-10-31T05:54:24;100813.20;;;9.78;78.32
43683;BME280;29285;52.128;21.060;2022-10-31T05:59:26;100816.26;;;9.76;78.27
43683;BME280;29285;52.128;21.060;2022-10-31T06:04:27;100809.80;;;9.71;78.23
43683;BME280;29285;52.128;21.060;2022-10-31T06:09:28;100817.59;;;9.68;78.21
43683;BME280;29285;52.128;21.060;2022-10-31T06:14:30;100822.37;;;9.69;78.26
43683;BME280;29285;52.128;21.060;2022-10-31T06:19:31;100829.74;;;9.61;78.18
43683;BME280;29285;52.128;21.060;2022-10-31T06:24:33;100830.23;;;9.50;78.00
43683;BME280;29285;52.128;21.060;2022-10-31T06:29:34;100835.00;;;9.47;77.92
43683;BME280;29285;52.128;21.060;2022-10-31T06:34:36;100834.52;;;9.60;78.06
43683;BME280;29285;52.128;21.060;2022-10-31T06:39:37;100834.48;;;9.70;78.22
43683;BME280;29285;52.128;21.060;2022-10-31T06:44:39;100841.38;;;9.77;78.34
43683;BME280;29285;52.128;21.060;2022-10-31T06:49:40;100833.15;;;9.74;78.36
43683;BME280;29285;52.128;21.060;2022-10-31T06:54:41;100842.25;;;9.74;78.31
43683;BME280;29285;52.128;21.060;2022-10-31T06:59:43;100830.09;;;9.81;78.39
43683;BME280;29285;52.128;21.060;2022-10-31T07:04:44;100836.55;;;9.93;78.54
43683;BME280;29285;52.128;21.060;2022-10-31T07:09:46;100836.47;;;10.03;78.64
43683;BME280;29285;52.128;21.060;2022-10-31T07:14:47;100832.47;;;10.18;78.77
43683;BME280;29285;52.128;21.060;2022-10-31T07:19:48;100836.31;;;10.29;78.91
43683;BME280;29285;52.128;21.060;2022-10-31T07:24:50;100836.67;;;10.40;79.02
43683;BME280;29285;52.128;21.060;2022-10-31T07:29:51;100844.03;;;10.45;79.08
43683;BME280;29285;52.128;21.060;2022-10-31T07:34:52;100853.55;;;10.48;79.09
43683;BME280;29285;52.128;21.060;2022-10-31T07:39:54;100850.96;;;10.46;79.02
43683;BME280;29285;52.128;21.060;2022-10-31T07:44:55;100851.31;;;10.58;79.11
43683;BME280;29285;52.128;21.060;2022-10-31T07:49:56;100856.91;;;10.65;79.27
43683;BME280;29285;52.128;21.060;2022-10-31T07:54:58;100849.98;;;10.64;79.29
43683;BME280;29285;52.128;21.060;2022-10-31T07:59:59;100846.98;;;10.57;79.20
43683;BME280;29285;52.128;21.060;2022-10-31T08:05:01;100848.34;;;10.51;79.12
43683;BME280;29285;52.128;21.060;2022-10-31T08:10:05;100850.84;;;10.63;79.22
43683;BME280;29285;52.128;21.060;2022-10-31T08:15:08;100855.56;;;10.68;79.37
43683;BME280;29285;52.128;21.060;2022-10-31T08:20:10;100851.51;;;10.87;79.58
43683;BME280;29285;52.128;21.060;2022-10-31T08:25:12;100865.62;;;11.09;79.89
43683;BME280;29285;52.128;21.060;2022-10-31T08:30:14;100865.20;;;11.09;79.91
43683;BME280;29285;52.128;21.060;2022-10-31T08:35:15;100869.38;;;11.24;80.02
43683;BME280;29285;52.128;21.060;2022-10-31T08:40:17;100867.48;;;11.39;80.18
43683;BME280;29285;52.128;21.060;2022-10-31T08:45:18;100874.37;;;11.46;80.24
43683;BME280;29285;52.128;21.060;2022-10-31T08:50:19;100886.02;;;11.54;80.29
43683;BME280;29285;52.128;21.060;2022-10-31T08:55:21;100883.73;;;11.63;80.32
43683;BME280;29285;52.128;21.060;2022-10-31T09:00:22;100882.66;;;11.79;80.44
43683;BME280;29285;52.128;21.060;2022-10-31T09:05:25;100883.31;;;11.99;80.64
43683;BME280;29285;52.128;21.060;2022-10-31T09:15:30;100885.86;;;12.36;80.98
43683;BME280;29285;52.128;21.060;2022-10-31T09:20:33;100885.70;;;12.47;81.04
43683;BME280;29285;52.128;21.060;2022-10-31T09:25:35;100882.19;;;12.49;81.01
43683;BME280;29285;52.128;21.060;2022-10-31T09:30:37;100883.88;;;12.53;80.88
43683;BME280;29285;52.128;21.060;2022-10-31T09:35:39;100893.70;;;12.65;80.89
43683;BME280;29285;52.128;21.060;2022-10-31T09:40:43;100893.39;;;12.85;81.00
43683;BME280;29285;52.128;21.060;2022-10-31T09:51:12;100888.58;;;13.10;81.03
43683;BME280;29285;52.128;21.060;2022-10-31T09:56:18;100890.53;;;13.23;81.08
43683;BME280;29285;52.128;21.060;2022-10-31T10:01:51;100892.63;;;13.27;81.04
43683;BME280;29285;52.128;21.060;2022-10-31T10:06:51;100883.68;;;13.41;81.06
43683;BME280;29285;52.128;21.060;2022-10-31T10:33:36;100865.41;;;14.62;81.92
43683;BME280;29285;52.128;21.060;2022-10-31T10:38:52;100862.88;;;14.95;82.03
43683;BME280;29285;52.128;21.060;2022-10-31T10:44:07;100859.70;;;15.16;81.93
43683;BME280;29285;52.128;21.060;2022-10-31T10:59:57;100857.11;;;15.93;81.76
43683;BME280;29285;52.128;21.060;2022-10-31T11:05:01;100852.41;;;16.19;81.67
43683;BME280;29285;52.128;21.060;2022-10-31T11:10:06;100855.10;;;16.58;81.77
43683;BME280;29285;52.128;21.060;2022-10-31T11:15:20;100851.64;;;16.97;81.84
43683;BME280;29285;52.128;21.060;2022-10-31T11:20:27;100841.66;;;17.20;81.59
43683;BME280;29285;52.128;21.060;2022-10-31T11:25:34;100844.48;;;17.51;80.32
43683;BME280;29285;52.128;21.060;2022-10-31T11:30:42;100844.48;;;17.51;80.32
43683;BME280;29285;52.128;21.060;2022-10-31T11:35:44;100840.98;;;17.51;79.68
43683;BME280;29285;52.128;21.060;2022-10-31T11:40:54;100846.72;;;17.62;79.33
43683;BME280;29285;52.128;21.060;2022-10-31T11:46:16;100842.97;;;17.80;79.22
43683;BME280;29285;52.128;21.060;2022-10-31T11:51:28;100837.29;;;18.03;79.27
43683;BME280;29285;52.128;21.060;2022-10-31T11:56:41;100833.48;;;18.22;79.06
43683;BME280;29285;52.128;21.060;2022-10-31T12:01:49;100835.13;;;18.57;79.23
43683;BME280;29285;52.128;21.060;2022-10-31T12:06:52;100834.27;;;18.77;79.08
43683;BME280;29285;52.128;21.060;2022-10-31T12:12:03;100836.36;;;19.12;79.06
43683;BME280;29285;52.128;21.060;2022-10-31T12:17:19;100830.41;;;18.86;78.05
43683;BME280;29285;52.128;21.060;2022-10-31T12:22:50;100828.77;;;18.84;77.25
43683;BME280;29285;52.128;21.060;2022-10-31T12:39:11;100819.80;;;18.88;75.99
43683;BME280;29285;52.128;21.060;2022-10-31T12:50:02;100817.52;;;19.30;76.07
43683;BME280;29285;52.128;21.060;2022-10-31T13:00:58;100821.11;;;18.98;74.68
43683;BME280;29285;52.128;21.060;2022-10-31T13:06:07;100817.29;;;18.74;74.09
43683;BME280;29285;52.128;21.060;2022-10-31T13:11:16;100818.45;;;18.77;73.95
43683;BME280;29285;52.128;21.060;2022-10-31T13:16:19;100817.61;;;18.56;73.62
43683;BME280;29285;52.128;21.060;2022-10-31T13:21:26;100814.40;;;18.27;72.90
43683;BME280;29285;52.128;21.060;2022-10-31T13:26:52;100807.97;;;19.86;72.84
43683;BME280;29285;52.128;21.060;2022-10-31T13:31:54;100815.96;;;21.52;72.57
43683;BME280;29285;52.128;21.060;2022-10-31T13:48:46;100812.09;;;19.91;68.33
43683;BME280;29285;52.128;21.060;2022-10-31T13:53:20;100814.77;;;18.61;68.07
43683;BME280;29285;52.128;21.060;2022-10-31T13:58:25;100823.13;;;17.83;68.52
43683;BME280;29285;52.128;21.060;2022-10-31T14:03:28;100815.31;;;17.22;68.95
43683;BME280;29285;52.128;21.060;2022-10-31T14:08:33;100813.86;;;16.74;69.42
43683;BME280;29285;52.128;21.060;2022-10-31T14:13:38;100818.47;;;16.26;69.85
43683;BME280;29285;52.128;21.060;2022-10-31T14:18:51;100819.60;;;15.89;70.25
43683;BME280;29285;52.128;21.060;2022-10-31T14:23:50;100821.77;;;15.61;70.73
43683;BME280;29285;52.128;21.060;2022-10-31T14:28:55;100811.73;;;15.29;71.07
43683;BME280;29285;52.128;21.060;2022-10-31T14:39:24;100815.98;;;14.66;71.64
43683;BME280;29285;52.128;21.060;2022-10-31T14:55:10;100823.84;;;13.71;72.47
43683;BME280;29285;52.128;21.060;2022-10-31T15:00:19;100824.91;;;13.37;72.84
43683;BME280;29285;52.128;21.060;2022-10-31T15:05:22;100825.17;;;13.25;73.35
43683;BME280;29285;52.128;21.060;2022-10-31T15:10:30;100820.30;;;13.29;73.97
43683;BME280;29285;52.128;21.060;2022-10-31T15:15:34;100826.92;;;13.49;74.69
43683;BME280;29285;52.128;21.060;2022-10-31T15:20:41;100825.22;;;13.45;75.08
43683;BME280;29285;52.128;21.060;2022-10-31T15:25:43;100825.77;;;13.40;75.28
43683;BME280;29285;52.128;21.060;2022-10-31T15:31:00;100830.35;;;13.28;75.46
43683;BME280;29285;52.128;21.060;2022-10-31T15:36:01;100831.13;;;13.33;75.84
43683;BME280;29285;52.128;21.060;2022-10-31T15:41:05;100830.30;;;13.54;76.38
43683;BME280;29285;52.128;21.060;2022-10-31T15:46:10;100828.27;;;13.69;76.84
43683;BME280;29285;52.128;21.060;2022-10-31T15:51:11;100818.86;;;13.80;77.17
43683;BME280;29285;52.128;21.060;2022-10-31T15:56:27;100826.41;;;13.74;77.32
43683;BME280;29285;52.128;21.060;2022-10-31T16:01:32;100833.06;;;13.45;77.07
43683;BME280;29285;52.128;21.060;2022-10-31T16:06:34;100843.52;;;13.45;77.22
43683;BME280;29285;52.128;21.060;2022-10-31T16:11:37;100849.05;;;13.29;77.31
43683;BME280;29285;52.128;21.060;2022-10-31T16:16:47;100843.90;;;13.24;77.50
43683;BME280;29285;52.128;21.060;2022-10-31T16:21:53;100847.34;;;13.28;77.75
43683;BME280;29285;52.128;21.060;2022-10-31T16:27:15;100844.38;;;13.47;78.23
43683;BME280;29285;52.128;21.060;2022-10-31T16:32:50;100846.63;;;13.66;78.70
43683;BME280;29285;52.128;21.060;2022-10-31T16:37:55;100853.71;;;13.82;79.09
43683;BME280;29285;52.128;21.060;2022-10-31T16:42:58;100846.10;;;13.90;79.34
43683;BME280;29285;52.128;21.060;2022-10-31T16:48:08;100842.97;;;13.94;79.47
43683;BME280;29285;52.128;21.060;2022-10-31T16:53:12;100843.43;;;13.94;79.49
43683;BME280;29285;52.128;21.060;2022-10-31T16:58:29;100838.61;;;13.95;79.58
43683;BME280;29285;52.128;21.060;2022-10-31T17:03:30;100849.50;;;13.94;79.66
43683;BME280;29285;52.128;21.060;2022-10-31T17:08:32;100841.22;;;13.95;79.79
43683;BME280;29285;52.128;21.060;2022-10-31T17:13:34;100844.30;;;13.93;79.84
43683;BME280;29285;52.128;21.060;2022-10-31T17:18:35;100846.53;;;13.90;79.95
43683;BME280;29285;52.128;21.060;2022-10-31T17:23:37;100849.73;;;13.83;79.97
43683;BME280;29285;52.128;21.060;2022-10-31T17:28:38;100850.48;;;13.88;80.10
43683;BME280;29285;52.128;21.060;2022-10-31T17:33:40;100849.56;;;13.91;80.34
43683;BME280;29285;52.128;21.060;2022-10-31T17:38:42;100853.00;;;13.95;80.56
43683;BME280;29285;52.128;21.060;2022-10-31T17:43:44;100848.31;;;13.89;80.63
43683;BME280;29285;52.128;21.060;2022-10-31T17:48:46;100861.88;;;13.86;80.66
43683;BME280;29285;52.128;21.060;2022-10-31T17:53:47;100860.08;;;13.89;80.81
43683;BME280;29285;52.128;21.060;2022-10-31T17:58:53;100866.13;;;13.92;81.06
43683;BME280;29285;52.128;21.060;2022-10-31T18:03:57;100858.63;;;13.96;81.23
43683;BME280;29285;52.128;21.060;2022-10-31T18:09:03;100853.75;;;14.00;81.41
43683;BME280;29285;52.128;21.060;2022-10-31T18:14:05;100855.50;;;13.99;81.52
43683;BME280;29285;52.128;21.060;2022-10-31T18:19:06;100861.20;;;13.99;81.58
43683;BME280;29285;52.128;21.060;2022-10-31T18:24:08;100858.14;;;13.98;81.67
43683;BME280;29285;52.128;21.060;2022-10-31T18:29:10;100846.31;;;14.01;81.81
43683;BME280;29285;52.128;21.060;2022-10-31T18:34:13;100839.74;;;14.02;81.96
43683;BME280;29285;52.128;21.060;2022-10-31T18:39:15;100844.56;;;14.01;82.06
43683;BME280;29285;52.128;21.060;2022-10-31T18:44:17;100843.70;;;14.01;82.13
43683;BME280;29285;52.128;21.060;2022-10-31T18:49:19;100843.20;;;14.03;82.28
43683;BME280;29285;52.128;21.060;2022-10-31T18:54:22;100846.28;;;14.02;82.38
43683;BME280;29285;52.128;21.060;2022-10-31T18:59:25;100845.79;;;14.05;82.52
43683;BME280;29285;52.128;21.060;2022-10-31T19:04:27;100846.25;;;14.04;82.63
43683;BME280;29285;52.128;21.060;2022-10-31T19:09:28;100851.05;;;14.03;82.70
43683;BME280;29285;52.128;21.060;2022-10-31T19:14:31;100848.52;;;14.00;82.72
43683;BME280;29285;52.128;21.060;2022-10-31T19:19:32;100841.98;;;14.00;82.82
43683;BME280;29285;52.128;21.060;2022-10-31T19:24:34;100827.94;;;14.04;82.98
43683;BME280;29285;52.128;21.060;2022-10-31T19:29:36;100840.09;;;14.07;83.10
43683;BME280;29285;52.128;21.060;2022-10-31T19:34:37;100832.62;;;14.09;83.24
43683;BME280;29285;52.128;21.060;2022-10-31T19:39:38;100826.11;;;14.08;83.34
43683;BME280;29285;52.128;21.060;2022-10-31T19:44:40;100826.95;;;14.08;83.41
43683;BME280;29285;52.128;21.060;2022-10-31T19:49:42;100829.13;;;14.09;83.55
43683;BME280;29285;52.128;21.060;2022-10-31T19:54:45;100830.23;;;13.98;83.50
43683;BME280;29285;52.128;21.060;2022-10-31T19:59:46;100831.52;;;14.00;83.58
43683;BME280;29285;52.128;21.060;2022-10-31T20:04:48;100830.73;;;13.96;83.69
43683;BME280;29285;52.128;21.060;2022-10-31T20:09:49;100825.41;;;13.99;83.83
43683;BME280;29285;52.128;21.060;2022-10-31T20:14:51;100819.97;;;13.89;83.84
43683;BME280;29285;52.128;21.060;2022-10-31T20:19:52;100817.38;;;13.87;83.90
43683;BME280;29285;52.128;21.060;2022-10-31T20:24:53;100816.39;;;13.93;84.14
43683;BME280;29285;52.128;21.060;2022-10-31T20:29:55;100801.86;;;13.99;84.38
43683;BME280;29285;52.128;21.060;2022-10-31T20:34:56;100802.55;;;14.08;84.60
43683;BME280;29285;52.128;21.060;2022-10-31T20:39:57;100802.93;;;14.10;84.74
43683;BME280;29285;52.128;21.060;2022-10-31T20:44:59;100796.30;;;14.13;84.87
43683;BME280;29285;52.128;21.060;2022-10-31T20:50:00;100800.66;;;14.14;84.97
43683;BME280;29285;52.128;21.060;2022-10-31T20:55:02;100797.70;;;14.10;85.04
43683;BME280;29285;52.128;21.060;2022-10-31T21:00:05;100798.89;;;13.95;84.87
43683;BME280;29285;52.128;21.060;2022-10-31T21:05:09;100800.20;;;13.75;84.72
43683;BME280;29285;52.128;21.060;2022-10-31T21:10:11;100800.31;;;13.71;84.74
43683;BME280;29285;52.128;21.060;2022-10-31T21:15:15;100799.50;;;13.69;84.88
43683;BME280;29285;52.128;21.060;2022-10-31T21:20:17;100804.56;;;13.55;84.95
43683;BME280;29285;52.128;21.060;2022-10-31T21:25:18;100794.48;;;13.58;85.11
43683;BME280;29285;52.128;21.060;2022-10-31T21:30:20;100795.63;;;13.66;85.40
43683;BME280;29285;52.128;21.060;2022-10-31T21:35:22;100792.95;;;13.69;85.56
43683;BME280;29285;52.128;21.060;2022-10-31T21:40:24;100796.71;;;13.76;85.82
43683;BME280;29285;52.128;21.060;2022-10-31T21:45:26;100791.56;;;13.72;85.89
43683;BME280;29285;52.128;21.060;2022-10-31T21:50:27;100784.88;;;13.78;86.02
43683;BME280;29285;52.128;21.060;2022-10-31T21:55:30;100779.33;;;13.74;86.10
43683;BME280;29285;52.128;21.060;2022-10-31T22:00:31;100776.89;;;13.66;86.07
43683;BME280;29285;52.128;21.060;2022-10-31T22:05:33;100774.42;;;13.78;86.30
43683;BME280;29285;52.128;21.060;2022-10-31T22:10:35;100767.02;;;13.79;86.47
43683;BME280;29285;52.128;21.060;2022-10-31T22:15:36;100769.52;;;13.84;86.59
43683;BME280;29285;52.128;21.060;2022-10-31T22:20:38;100770.30;;;13.87;86.70
43683;BME280;29285;52.128;21.060;2022-10-31T22:25:39;100770.17;;;13.94;86.88
43683;BME280;29285;52.128;21.060;2022-10-31T22:30:40;100776.56;;;14.00;87.00
43683;BME280;29285;52.128;21.060;2022-10-31T22:35:42;100765.35;;;13.95;87.02
43683;BME280;29285;52.128;21.060;2022-10-31T22:40:43;100763.89;;;14.01;87.12
43683;BME280;29285;52.128;21.060;2022-10-31T22:45:52;100758.16;;;14.03;87.25
43683;BME280;29285;52.128;21.060;2022-10-31T22:50:54;100757.34;;;14.01;87.27
43683;BME280;29285;52.128;21.060;2022-10-31T22:55:55;100756.41;;;13.85;87.15
43683;BME280;29285;52.128;21.060;2022-10-31T23:00:57;100748.98;;;13.85;87.12
43683;BME280;29285;52.128;21.060;2022-10-31T23:06:00;100744.05;;;13.92;87.29
43683;BME280;29285;52.128;21.060;2022-10-31T23:11:17;100748.69;;;13.99;87.48
43683;BME280;29285;52.128;21.060;2022-10-31T23:16:21;100738.22;;;13.99;87.59
43683;BME280;29285;52.128;21.060;2022-10-31T23:21:23;100742.98;;;13.99;87.63
43683;BME280;29285;52.128;21.060;2022-10-31T23:26:43;100745.05;;;14.05;87.72
43683;BME280;29285;52.128;21.060;2022-10-31T23:32:05;100750.31;;;14.03;87.79
43683;BME280;29285;52.128;21.060;2022-10-31T23:37:09;100752.70;;;13.94;87.74
43683;BME280;29285;52.128;21.060;2022-10-31T23:42:11;100744.13;;;13.87;87.67
43683;BME280;29285;52.128;21.060;2022-10-31T23:47:14;100742.48;;;13.83;87.69
43683;BME280;29285;52.128;21.060;2022-10-31T23:52:18;100742.45;;;13.85;87.75
43683;BME280;29285;52.128;21.060;2022-10-31T23:57:19;100738.84;;;13.90;87.94
